Terminal Aerodrome Forecast
Issued by NWS Jackson, MS

Home | Current Version | Previous Version | Text Only | Print | Product List | Glossary On
Versions: 1 2 3 4 5 6 7 8 9 10 11 12 13
945
FTUS44 KJAN 262321
TAFMEI
TAF
KMEI 262321Z 2700/2724 17013KT P6SM SCT250
     FM270300 17015KT P6SM VCTS OVC025CB
     FM270700 20010KT P6SM VCTS BKN015CB OVC090
     FM270900 26008KT P6SM BKN015
     FM271600 30007KT P6SM FEW025 SCT250=

USA.gov is the U.S. government's official web portal to all federal, state and local government web resources and services.